sensor_id;sensor_type;location;lat;lon;timestamp;P1;durP1;ratioP1;P2;durP2;ratioP2
3831;SDS011;12460;42.662;23.288;2023-05-10T00:08:57;8.73;;;7.50;;
3831;SDS011;12460;42.662;23.288;2023-05-10T00:24:01;9.67;;;7.00;;
3831;SDS011;12460;42.662;23.288;2023-05-10T00:39:06;8.10;;;7.30;;
3831;SDS011;12460;42.662;23.288;2023-05-10T00:54:14;9.00;;;8.10;;
3831;SDS011;12460;42.662;23.288;2023-05-10T01:09:21;10.43;;;8.23;;
3831;SDS011;12460;42.662;23.288;2023-05-10T01:40:08;8.53;;;7.40;;
3831;SDS011;12460;42.662;23.288;2023-05-10T01:55:22;7.20;;;6.47;;
3831;SDS011;12460;42.662;23.288;2023-05-10T02:10:34;6.80;;;6.10;;
3831;SDS011;12460;42.662;23.288;2023-05-10T02:25:40;6.63;;;6.03;;
3831;SDS011;12460;42.662;23.288;2023-05-10T02:40:46;6.90;;;6.20;;
3831;SDS011;12460;42.662;23.288;2023-05-10T02:55:52;6.80;;;6.10;;
3831;SDS011;12460;42.662;23.288;2023-05-10T03:26:17;8.23;;;6.57;;
3831;SDS011;12460;42.662;23.288;2023-05-10T03:41:25;7.43;;;6.63;;
3831;SDS011;12460;42.662;23.288;2023-05-10T03:56:30;7.97;;;6.10;;
3831;SDS011;12460;42.662;23.288;2023-05-10T04:11:35;7.83;;;6.70;;
3831;SDS011;12460;42.662;23.288;2023-05-10T04:26:40;7.60;;;6.80;;
3831;SDS011;12460;42.662;23.288;2023-05-10T04:41:44;7.53;;;6.50;;
3831;SDS011;12460;42.662;23.288;2023-05-10T04:56:50;10.17;;;7.70;;
3831;SDS011;12460;42.662;23.288;2023-05-10T05:27:49;11.43;;;7.20;;
3831;SDS011;12460;42.662;23.288;2023-05-10T05:42:54;10.33;;;8.33;;
3831;SDS011;12460;42.662;23.288;2023-05-10T05:57:58;10.80;;;9.00;;
3831;SDS011;12460;42.662;23.288;2023-05-10T06:13:03;11.30;;;9.20;;
3831;SDS011;12460;42.662;23.288;2023-05-10T06:28:08;14.80;;;11.00;;
3831;SDS011;12460;42.662;23.288;2023-05-10T06:43:12;11.80;;;9.23;;
3831;SDS011;12460;42.662;23.288;2023-05-10T06:58:16;12.63;;;9.07;;
3831;SDS011;12460;42.662;23.288;2023-05-10T07:13:19;12.10;;;8.67;;
3831;SDS011;12460;42.662;23.288;2023-05-10T07:28:24;12.67;;;9.17;;
3831;SDS011;12460;42.662;23.288;2023-05-10T07:43:28;12.80;;;10.23;;
3831;SDS011;12460;42.662;23.288;2023-05-10T07:58:33;12.20;;;9.97;;
3831;SDS011;12460;42.662;23.288;2023-05-10T08:13:38;14.90;;;10.30;;
3831;SDS011;12460;42.662;23.288;2023-05-10T08:28:43;12.43;;;9.90;;
3831;SDS011;12460;42.662;23.288;2023-05-10T08:43:47;17.80;;;10.50;;
3831;SDS011;12460;42.662;23.288;2023-05-10T08:58:56;14.10;;;10.40;;
3831;SDS011;12460;42.662;23.288;2023-05-10T09:14:01;16.07;;;11.97;;
3831;SDS011;12460;42.662;23.288;2023-05-10T09:29:06;14.70;;;10.93;;
3831;SDS011;12460;42.662;23.288;2023-05-10T09:44:14;16.43;;;11.97;;
3831;SDS011;12460;42.662;23.288;2023-05-10T09:59:27;13.40;;;12.00;;
3831;SDS011;12460;42.662;23.288;2023-05-10T10:14:33;15.70;;;12.30;;
3831;SDS011;12460;42.662;23.288;2023-05-10T10:29:49;12.83;;;11.10;;
3831;SDS011;12460;42.662;23.288;2023-05-10T10:45:24;15.07;;;11.17;;
3831;SDS011;12460;42.662;23.288;2023-05-10T11:00:30;13.07;;;11.27;;
3831;SDS011;12460;42.662;23.288;2023-05-10T11:15:48;12.67;;;10.87;;
3831;SDS011;12460;42.662;23.288;2023-05-10T11:30:54;11.67;;;10.40;;
3831;SDS011;12460;42.662;23.288;2023-05-10T11:46:00;10.43;;;9.43;;
3831;SDS011;12460;42.662;23.288;2023-05-10T12:01:05;14.17;;;10.87;;
3831;SDS011;12460;42.662;23.288;2023-05-10T12:16:29;16.90;;;11.20;;
3831;SDS011;12460;42.662;23.288;2023-05-10T12:31:48;15.77;;;11.73;;
3831;SDS011;12460;42.662;23.288;2023-05-10T12:46:54;13.10;;;10.87;;
3831;SDS011;12460;42.662;23.288;2023-05-10T13:01:58;13.50;;;11.17;;
3831;SDS011;12460;42.662;23.288;2023-05-10T13:17:04;12.03;;;10.70;;
3831;SDS011;12460;42.662;23.288;2023-05-10T13:32:09;12.80;;;10.43;;
3831;SDS011;12460;42.662;23.288;2023-05-10T13:47:13;13.30;;;11.20;;
3831;SDS011;12460;42.662;23.288;2023-05-10T14:02:18;12.70;;;10.60;;
3831;SDS011;12460;42.662;23.288;2023-05-10T14:17:22;11.40;;;10.00;;
3831;SDS011;12460;42.662;23.288;2023-05-10T14:32:27;15.20;;;11.00;;
3831;SDS011;12460;42.662;23.288;2023-05-10T14:47:31;13.53;;;10.90;;
3831;SDS011;12460;42.662;23.288;2023-05-10T15:02:35;13.33;;;10.97;;
3831;SDS011;12460;42.662;23.288;2023-05-10T15:17:40;13.30;;;10.40;;
3831;SDS011;12460;42.662;23.288;2023-05-10T15:32:45;13.20;;;11.13;;
3831;SDS011;12460;42.662;23.288;2023-05-10T15:47:50;11.93;;;10.07;;
3831;SDS011;12460;42.662;23.288;2023-05-10T16:02:55;12.23;;;10.90;;
3831;SDS011;12460;42.662;23.288;2023-05-10T16:17:59;14.20;;;11.20;;
3831;SDS011;12460;42.662;23.288;2023-05-10T16:33:04;13.47;;;9.97;;
3831;SDS011;12460;42.662;23.288;2023-05-10T16:48:09;11.57;;;10.03;;
3831;SDS011;12460;42.662;23.288;2023-05-10T17:03:14;14.20;;;11.17;;
3831;SDS011;12460;42.662;23.288;2023-05-10T17:18:17;12.93;;;11.47;;
3831;SDS011;12460;42.662;23.288;2023-05-10T17:33:21;12.30;;;11.00;;
3831;SDS011;12460;42.662;23.288;2023-05-10T17:48:28;11.60;;;10.40;;
3831;SDS011;12460;42.662;23.288;2023-05-10T18:03:32;18.43;;;10.20;;
3831;SDS011;12460;42.662;23.288;2023-05-10T18:18:38;12.83;;;10.20;;
3831;SDS011;12460;42.662;23.288;2023-05-10T18:33:44;12.40;;;9.13;;
3831;SDS011;12460;42.662;23.288;2023-05-10T18:48:49;9.40;;;8.50;;
3831;SDS011;12460;42.662;23.288;2023-05-10T19:03:54;9.97;;;8.30;;
3831;SDS011;12460;42.662;23.288;2023-05-10T19:18:59;9.27;;;8.20;;
3831;SDS011;12460;42.662;23.288;2023-05-10T19:34:03;11.73;;;9.53;;
3831;SDS011;12460;42.662;23.288;2023-05-10T19:49:09;10.37;;;9.30;;
3831;SDS011;12460;42.662;23.288;2023-05-10T20:04:15;11.60;;;9.00;;
3831;SDS011;12460;42.662;23.288;2023-05-10T20:19:22;14.70;;;9.63;;
3831;SDS011;12460;42.662;23.288;2023-05-10T20:34:34;12.30;;;10.43;;
3831;SDS011;12460;42.662;23.288;2023-05-10T20:49:39;11.30;;;9.97;;
3831;SDS011;12460;42.662;23.288;2023-05-10T21:04:43;11.67;;;10.43;;
3831;SDS011;12460;42.662;23.288;2023-05-10T21:19:48;12.17;;;10.93;;
3831;SDS011;12460;42.662;23.288;2023-05-10T21:34:53;10.77;;;9.67;;
3831;SDS011;12460;42.662;23.288;2023-05-10T21:49:57;12.07;;;10.90;;
3831;SDS011;12460;42.662;23.288;2023-05-10T22:05:02;12.77;;;11.47;;
3831;SDS011;12460;42.662;23.288;2023-05-10T22:20:08;14.70;;;10.50;;
3831;SDS011;12460;42.662;23.288;2023-05-10T22:35:13;11.50;;;9.80;;
3831;SDS011;12460;42.662;23.288;2023-05-10T22:50:18;12.47;;;9.67;;
3831;SDS011;12460;42.662;23.288;2023-05-10T23:05:23;16.53;;;11.10;;
3831;SDS011;12460;42.662;23.288;2023-05-10T23:20:27;13.57;;;11.87;;
3831;SDS011;12460;42.662;23.288;2023-05-10T23:35:33;14.47;;;12.93;;
3831;SDS011;12460;42.662;23.288;2023-05-10T23:50:37;12.17;;;10.97;;
